Time;durP1;ratioP1;P1;durP2;ratioP2;P2;SDS_P1;SDS_P2;PMS_P1;PMS_P2;Temp;Humidity;BMP_temperature;BMP_pressure;BME280_temperature;BME280_humidity;BME280_pressure;Samples;Min_cycle;Max_cycle;Signal;HPM_P1;HPM_P2
2021/12/30 00:01:45;;;;;;;46.70;17.77;;;;;;;10.37;100.00;101099.66;5115814;28;20034;-36
2021/12/30 00:04:11;;;;;;;48.83;19.93;;;;;;;10.35;100.00;101101.75;5116534;28;20019;-36
2021/12/30 00:06:40;;;;;;;35.03;17.53;;;;;;;10.33;100.00;101101.97;5115905;28;20286;-36
2021/12/30 00:09:09;;;;;;;45.63;17.00;;;;;;;10.32;100.00;101105.72;5116316;28;20019;-36
2021/12/30 00:11:35;;;;;;;41.50;17.92;;;;;;;10.32;100.00;101100.31;5115858;28;20078;-36
2021/12/30 00:14:00;;;;;;;42.63;16.25;;;;;;;10.32;100.00;101101.13;5116070;28;20440;-36
2021/12/30 00:16:26;;;;;;;52.17;15.82;;;;;;;10.29;100.00;101106.16;5115757;28;20054;-36
2021/12/30 00:18:51;;;;;;;45.20;14.33;;;;;;;10.33;100.00;101118.19;5116535;28;20104;-36
2021/12/30 00:21:18;;;;;;;38.90;13.70;;;;;;;10.25;100.00;101099.56;5116218;28;20277;-36
2021/12/30 00:23:43;;;;;;;41.67;12.95;;;;;;;10.36;100.00;101106.94;5115680;28;20847;-36
2021/12/30 00:26:09;;;;;;;41.03;12.37;;;;;;;10.36;100.00;101106.94;5115210;28;20118;-36
2021/12/30 00:28:35;;;;;;;45.60;12.50;;;;;;;10.36;100.00;101117.75;5115560;28;20059;-36
2021/12/30 00:31:01;;;;;;;34.38;11.98;;;;;;;10.40;100.00;101121.66;5115472;28;20032;-36
2021/12/30 00:33:27;;;;;;;40.67;11.93;;;;;;;10.41;100.00;101119.78;5115565;28;20035;-36
2021/12/30 00:35:53;;;;;;;38.08;12.13;;;;;;;10.47;100.00;101116.19;5115867;28;20353;-36
2021/12/30 00:38:19;;;;;;;34.72;12.05;;;;;;;10.46;100.00;101115.34;5115903;28;20027;-36
2021/12/30 00:40:45;;;;;;;;;;;;;;;10.51;100.00;101122.78;5115435;28;20105;-36
2021/12/30 00:43:10;;;;;;;38.90;11.13;;;;;;;10.45;100.00;101111.00;5115203;28;19919;-36
2021/12/30 00:45:36;;;;;;;37.33;11.70;;;;;;;10.50;100.00;101127.38;5115551;28;20110;-36
2021/12/30 00:48:03;;;;;;;37.97;11.98;;;;;;;10.46;100.00;101128.06;5115506;28;20494;-36
2021/12/30 00:50:30;;;;;;;36.67;11.15;;;;;;;10.54;100.00;101131.28;5115323;28;20034;-36
2021/12/30 00:52:58;;;;;;;46.70;13.10;;;;;;;10.43;100.00;101113.09;5115056;28;20057;-36
2021/12/30 00:55:23;;;;;;;37.70;11.48;;;;;;;10.55;100.00;101130.25;5114778;28;20085;-36
2021/12/30 00:57:48;;;;;;;32.00;11.63;;;;;;;10.46;100.00;101126.16;5114966;28;20027;-36
2021/12/30 01:00:17;;;;;;;44.00;12.27;;;;;;;10.56;100.00;101140.00;5115468;28;20023;-36
2021/12/30 01:02:43;;;;;;;35.80;11.25;;;;;;;10.57;100.00;101130.81;5115349;28;20016;-36
2021/12/30 01:05:09;;;;;;;39.97;12.25;;;;;;;10.57;100.00;101138.13;5114723;28;20081;-36
2021/12/30 01:07:35;;;;;;;41.35;12.35;;;;;;;10.58;100.00;101128.94;5115172;28;20434;-36
2021/12/30 01:10:01;;;;;;;50.20;13.60;;;;;;;10.57;100.00;101125.41;5114947;28;20039;-36
2021/12/30 01:12:28;;;;;;;45.22;12.10;;;;;;;10.50;100.00;101118.44;5114338;28;20035;-36
2021/12/30 01:14:54;;;;;;;43.22;12.32;;;;;;;10.57;100.00;101130.81;5114590;28;20039;-36
2021/12/30 01:17:28;;;;;;;36.95;12.40;;;;;;;10.55;100.00;101127.53;5114816;28;20031;-36
2021/12/30 01:19:54;;;;;;;38.30;12.52;;;;;;;10.59;100.00;101130.63;5114970;28;20418;-36
2021/12/30 01:22:27;;;;;;;37.05;12.27;;;;;;;10.60;100.00;101144.97;5114692;28;20026;-36
2021/12/30 01:24:53;;;;;;;37.95;11.55;;;;;;;10.58;100.00;101127.06;5114833;28;20133;-36
2021/12/30 01:27:19;;;;;;;33.78;11.10;;;;;;;10.58;100.00;101137.88;5114309;28;20063;-36
2021/12/30 01:29:45;;;;;;;31.45;10.90;;;;;;;10.51;100.00;101125.50;5114566;28;20133;-36
2021/12/30 01:32:10;;;;;;;37.65;12.32;;;;;;;10.55;100.00;101132.13;5114051;28;20032;-36
2021/12/30 01:34:36;;;;;;;37.07;10.93;;;;;;;10.61;100.00;101135.81;5114347;28;20459;-36
2021/12/30 01:37:04;;;;;;;42.53;11.68;;;;;;;10.64;100.00;101138.91;5114304;28;20323;-36
2021/12/30 01:39:32;;;;;;;39.35;10.95;;;;;;;10.68;100.00;101141.94;5114897;28;20123;-36
2021/12/30 01:41:58;;;;;;;36.70;10.65;;;;;;;10.63;100.00;101121.00;5113990;28;20532;-36
2021/12/30 01:44:24;;;;;;;38.47;11.57;;;;;;;10.71;100.00;101134.22;5114225;28;20054;-36
2021/12/30 01:46:50;;;;;;;37.58;11.25;;;;;;;10.73;100.00;101125.88;5114042;28;20023;-36
2021/12/30 01:49:16;;;;;;;44.13;10.70;;;;;;;10.75;100.00;101129.19;5114474;28;20043;-35
2021/12/30 01:51:43;;;;;;;39.53;10.70;;;;;;;10.58;100.00;101105.44;5114515;28;20364;-36
2021/12/30 01:54:10;;;;;;;42.15;10.52;;;;;;;10.76;100.00;101122.72;5113956;28;20089;-36
2021/12/30 01:56:35;;;;;;;29.40;10.18;;;;;;;10.83;100.00;101128.88;5113472;28;20107;-36
2021/12/30 01:59:03;;;;;;;37.63;11.25;;;;;;;10.86;100.00;101133.84;5114528;28;20424;-36
2021/12/30 02:01:28;;;;;;;39.95;11.68;;;;;;;10.90;100.00;101123.41;5114188;28;20027;-36
2021/12/30 02:03:53;;;;;;;37.47;11.90;;;;;;;10.91;100.00;101119.66;5113777;28;20464;-36
2021/12/30 02:06:19;;;;;;;35.80;12.13;;;;;;;10.94;100.00;101119.22;5113171;28;20069;-36
2021/12/30 02:08:45;;;;;;;43.20;14.07;;;;;;;10.99;100.00;101120.19;5113949;28;20035;-36
2021/12/30 02:11:10;;;;;;;41.73;13.47;;;;;;;10.92;100.00;101111.28;5113634;28;20084;-36
2021/12/30 02:13:36;;;;;;;39.47;14.23;;;;;;;10.98;100.00;101117.69;5113698;28;20032;-36
2021/12/30 02:16:02;;;;;;;40.20;15.13;;;;;;;11.00;100.00;101138.06;5113615;28;20023;-35
2021/12/30 02:18:29;;;;;;;49.72;15.48;;;;;;;11.07;100.00;101138.78;5114043;28;20348;-36
2021/12/30 02:20:59;;;;;;;37.15;13.57;;;;;;;11.11;100.00;101154.59;5113521;28;20024;-36
2021/12/30 02:23:28;;;;;;;35.35;14.15;;;;;;;11.13;100.00;101142.50;5113498;28;20146;-36
2021/12/30 02:25:56;;;;;;;37.92;14.27;;;;;;;11.13;100.00;101141.66;5114032;28;20027;-36
2021/12/30 02:28:24;;;;;;;37.30;14.05;;;;;;;11.14;100.00;101148.72;5113469;28;20386;-36
2021/12/30 02:30:52;;;;;;;39.40;14.30;;;;;;;11.18;100.00;101152.63;5113978;28;20039;-36
2021/12/30 02:33:17;;;;;;;36.30;14.07;;;;;;;11.16;100.00;101155.56;5113445;28;20043;-36
2021/12/30 02:35:43;;;;;;;37.10;13.70;;;;;;;11.17;100.00;101154.50;5113787;28;20181;-36
2021/12/30 02:38:09;;;;;;;38.97;14.50;;;;;;;11.16;100.00;101150.13;5113896;28;20118;-36
2021/12/30 02:40:43;;;;;;;42.13;14.80;;;;;;;11.18;100.00;101150.75;5114121;28;20092;-36
2021/12/30 02:43:16;;;;;;;38.60;15.57;;;;;;;11.19;100.00;101151.59;5113479;28;20036;-36
2021/12/30 02:45:42;;;;;;;45.65;13.45;;;;;;;11.19;100.00;101144.28;5113840;28;20101;-36
2021/12/30 02:48:15;;;;;;;;;;;;;;;11.20;100.00;101148.63;5114524;28;20398;-36
2021/12/30 02:50:41;;;;;;;34.67;12.48;;;;;;;11.13;100.00;101130.84;5113352;28;19908;-36
2021/12/30 02:53:06;;;;;;;32.97;13.52;;;;;;;11.19;100.00;101152.41;5113158;28;20051;-36
2021/12/30 02:55:31;;;;;;;31.77;13.50;;;;;;;11.19;100.00;101147.00;5112999;28;20028;-36
2021/12/30 02:57:57;;;;;;;35.07;12.53;;;;;;;11.18;100.00;101156.16;5094448;28;20097;-36
2021/12/30 03:00:22;;;;;;;30.87;12.93;;;;;;;11.12;100.00;101148.13;5113734;28;20028;-36
2021/12/30 03:02:47;;;;;;;35.55;13.32;;;;;;;11.19;100.00;101159.69;5112915;28;20123;-36
2021/12/30 03:05:16;;;;;;;29.67;12.10;;;;;;;11.13;100.00;101149.78;5113036;28;20043;-36
2021/12/30 03:07:41;;;;;;;38.47;13.27;;;;;;;11.23;100.00;101155.50;5113440;28;20490;-36
2021/12/30 03:10:14;;;;;;;29.90;11.23;;;;;;;11.21;100.00;101163.00;5113310;28;20031;-36
2021/12/30 03:12:39;;;;;;;28.45;11.90;;;;;;;11.23;100.00;101158.19;5113028;28;20027;-36
2021/12/30 03:15:05;;;;;;;32.30;11.33;;;;;;;11.24;100.00;101171.50;5113396;28;20040;-36
2021/12/30 03:17:30;;;;;;;29.77;12.40;;;;;;;11.24;100.00;101157.13;5113976;28;20028;-36
2021/12/30 03:19:56;;;;;;;32.10;11.40;;;;;;;11.27;100.00;101164.78;5116898;28;20099;-36
2021/12/30 03:22:22;;;;;;;27.25;11.38;;;;;;;11.19;100.00;101157.00;5116706;28;20076;-36
2021/12/30 03:24:47;;;;;;;26.65;10.25;;;;;;;11.27;100.00;101165.63;5116681;28;20031;-36
2021/12/30 03:27:13;;;;;;;28.43;11.30;;;;;;;11.30;100.00;101172.47;5116799;28;20114;-36
2021/12/30 03:29:38;;;;;;;22.07;10.07;;;;;;;11.28;100.00;101158.34;5117087;28;20257;-36
2021/12/30 03:32:03;;;;;;;21.47;10.30;;;;;;;11.28;100.00;101163.75;5116332;28;20464;-36
2021/12/30 03:34:29;;;;;;;26.08;10.25;;;;;;;11.29;100.00;101168.09;5116115;28;20028;-36
2021/12/30 03:36:54;;;;;;;23.80;11.43;;;;;;;11.27;100.00;101168.34;5116287;28;20024;-36
2021/12/30 03:39:20;;;;;;;22.30;10.43;;;;;;;11.29;100.00;101162.69;5116729;28;20024;-36
2021/12/30 03:41:45;;;;;;;17.50;9.70;;;;;;;11.30;100.00;101167.03;5116695;28;20063;-36
2021/12/30 03:44:10;;;;;;;20.03;10.10;;;;;;;11.30;100.00;101167.03;5116096;28;20367;-36
2021/12/30 03:46:36;;;;;;;19.13;10.33;;;;;;;11.29;100.00;101171.63;5116177;28;20031;-36
2021/12/30 03:49:05;;;;;;;22.70;10.52;;;;;;;11.24;100.00;101162.56;5116163;28;20471;-36
2021/12/30 03:51:37;;;;;;;18.08;10.18;;;;;;;11.30;100.00;101162.47;5115982;28;20027;-36
2021/12/30 03:54:03;;;;;;;21.27;10.05;;;;;;;11.23;100.00;101141.97;5115681;28;20030;-36
2021/12/30 03:56:30;;;;;;;13.77;9.27;;;;;;;11.33;100.00;101156.59;5115882;28;20024;-36
2021/12/30 03:58:57;;;;;;;15.90;9.68;;;;;;;11.35;100.00;101159.06;5115882;28;20131;-36
2021/12/30 04:01:24;;;;;;;14.80;9.40;;;;;;;11.41;100.00;101160.03;5115788;28;20102;-36
2021/12/30 04:03:50;;;;;;;12.80;9.27;;;;;;;11.41;100.00;101155.44;5115993;28;20027;-36
2021/12/30 04:06:15;;;;;;;12.60;8.52;;;;;;;11.45;100.00;101161.22;5115397;28;20067;-36
2021/12/30 04:08:41;;;;;;;14.32;10.00;;;;;;;11.44;100.00;101155.00;5116077;28;20055;-36
2021/12/30 04:11:07;;;;;;;12.82;9.50;;;;;;;11.51;100.00;101157.59;5115311;28;20028;-36
2021/12/30 04:13:34;;;;;;;12.18;9.85;;;;;;;11.41;100.00;101158.16;5115652;28;20031;-36
2021/12/30 04:15:59;;;;;;;14.43;10.65;;;;;;;11.45;100.00;101153.94;5115608;28;20051;-36
2021/12/30 04:18:25;;;;;;;15.27;10.83;;;;;;;11.56;100.00;101172.09;5115295;28;20488;-36
2021/12/30 04:20:51;;;;;;;13.52;10.57;;;;;;;11.57;100.00;101167.53;5115594;28;20051;-36
2021/12/30 04:23:16;;;;;;;16.75;12.85;;;;;;;11.60;100.00;101177.91;5115147;28;20055;-36
2021/12/30 04:25:42;;;;;;;17.80;13.43;;;;;;;11.59;100.00;101185.19;5115275;28;20028;-36
2021/12/30 04:28:08;;;;;;;25.33;16.75;;;;;;;11.50;100.00;101162.19;5115001;28;20035;-36
2021/12/30 04:30:33;;;;;;;22.50;16.80;;;;;;;11.59;100.00;101182.47;5114785;28;20031;-36
2021/12/30 04:32:59;;;;;;;23.98;17.90;;;;;;;11.58;100.00;101167.28;5115458;28;20023;-36
2021/12/30 04:35:24;;;;;;;23.38;18.27;;;;;;;11.69;100.00;101183.81;5115384;28;20467;-36
2021/12/30 04:37:49;;;;;;;28.60;21.80;;;;;;;11.72;100.00;101177.94;5115099;28;20027;-36
2021/12/30 04:40:15;;;;;;;31.20;22.42;;;;;;;11.71;100.00;101173.56;5115929;28;20046;-36
2021/12/30 04:42:41;;;;;;;32.60;23.10;;;;;;;11.79;100.00;101175.97;5115004;28;20027;-36
2021/12/30 04:45:07;;;;;;;;;;;;;;;11.79;100.00;101182.19;5115451;28;20486;-36
2021/12/30 04:47:32;;;;;;;30.63;24.17;;;;;;;11.68;100.00;101163.22;5114923;28;19912;-36
2021/12/30 04:49:58;;;;;;;31.40;24.73;;;;;;;11.87;100.00;101181.09;5115211;28;20027;-36
2021/12/30 04:52:25;;;;;;;32.92;25.95;;;;;;;11.89;100.00;101188.97;5114506;28;20415;-36
2021/12/30 04:54:50;;;;;;;33.50;26.58;;;;;;;11.84;100.00;101185.06;5114761;28;20491;-36
2021/12/30 04:57:17;;;;;;;32.27;26.23;;;;;;;11.94;100.00;101189.94;5114830;28;20024;-36
2021/12/30 04:59:42;;;;;;;;;;;;;;;11.96;100.00;101195.16;5115575;28;20265;-36
2021/12/30 05:02:07;;;;;;;28.70;22.67;;;;;;;11.97;100.00;101186.78;5114572;28;19912;-36
2021/12/30 05:04:33;;;;;;;28.57;22.73;;;;;;;11.94;100.00;101179.09;5115168;28;20031;-36
2021/12/30 05:06:58;;;;;;;28.05;22.60;;;;;;;11.95;100.00;101183.44;5114619;28;20289;-36
2021/12/30 05:09:24;;;;;;;25.50;20.73;;;;;;;11.98;100.00;101185.72;5114648;28;20031;-36
2021/12/30 05:11:49;;;;;;;22.30;18.90;;;;;;;12.05;100.00;101191.00;5114467;28;20028;-36
2021/12/30 05:14:14;;;;;;;22.10;18.33;;;;;;;12.03;100.00;101193.97;5114712;28;20063;-36
2021/12/30 05:16:40;;;;;;;20.97;17.17;;;;;;;12.06;100.00;101188.09;5114135;28;20293;-36
2021/12/30 05:19:06;;;;;;;19.48;16.63;;;;;;;12.10;100.00;101193.84;5115027;28;20036;-36
2021/12/30 05:21:32;;;;;;;18.52;16.52;;;;;;;12.10;100.00;101194.72;5114285;28;20337;-36
2021/12/30 05:23:58;;;;;;;;;;;;;;;12.11;100.00;101195.53;5115014;28;20119;-36
2021/12/30 05:26:27;;;;;;;17.70;15.85;;;;;;;12.15;100.00;101198.59;5114004;28;20002;-36
2021/12/30 05:28:57;;;;;;;16.63;14.93;;;;;;;12.19;100.00;101203.31;5114748;28;20088;-36
2021/12/30 05:31:23;;;;;;;15.88;14.27;;;;;;;12.18;100.00;101217.09;5114106;28;20436;-36
2021/12/30 05:33:48;;;;;;;17.05;13.80;;;;;;;12.07;100.00;101199.75;5114185;28;20376;-36
2021/12/30 05:36:14;;;;;;;15.77;14.18;;;;;;;12.25;100.00;101225.94;5114138;28;20035;-36
2021/12/30 05:38:39;;;;;;;15.60;13.90;;;;;;;12.10;100.00;101197.41;5114145;28;20174;-36
2021/12/30 05:41:04;;;;;;;15.13;13.53;;;;;;;12.20;100.00;101209.56;5112955;28;20031;-36
2021/12/30 05:43:30;;;;;;;13.77;12.37;;;;;;;12.30;100.00;101235.06;5114557;28;20031;-36
2021/12/30 05:45:55;;;;;;;14.03;12.60;;;;;;;12.33;100.00;101241.88;5114846;28;20257;-36
2021/12/30 05:48:21;;;;;;;14.10;12.50;;;;;;;12.36;100.00;101236.00;5114200;28;20051;-36
2021/12/30 05:50:46;;;;;;;13.90;12.60;;;;;;;12.35;100.00;101239.78;5114510;28;20451;-36
2021/12/30 05:53:11;;;;;;;13.13;11.93;;;;;;;12.40;100.00;101242.63;5114397;28;20032;-36
2021/12/30 05:55:37;;;;;;;12.43;11.13;;;;;;;12.39;100.00;101246.38;5113827;28;20098;-36
2021/12/30 05:58:02;;;;;;;11.27;10.20;;;;;;;12.40;100.00;101244.53;5114323;28;20028;-36
2021/12/30 06:00:29;;;;;;;10.87;9.83;;;;;;;12.43;100.00;101252.16;5114291;28;20663;-36
2021/12/30 06:02:55;;;;;;;10.27;9.30;;;;;;;12.39;100.00;101249.09;5114162;28;20111;-36
2021/12/30 06:05:20;;;;;;;9.18;8.27;;;;;;;12.43;100.00;101236.72;5113672;28;20107;-36
2021/12/30 06:07:46;;;;;;;8.57;7.72;;;;;;;12.43;100.00;101231.28;5114585;28;20072;-36
2021/12/30 06:10:11;;;;;;;7.60;6.90;;;;;;;12.27;100.00;101204.88;5113478;28;20031;-36
2021/12/30 06:12:38;;;;;;;6.90;6.30;;;;;;;12.42;100.00;101235.06;5113583;28;20034;-36
2021/12/30 06:15:03;;;;;;;;;;;;;;;12.48;100.00;101244.16;5114866;28;20125;-36
2021/12/30 06:17:29;;;;;;;5.22;4.43;;;;;;;12.47;100.00;101237.91;5113910;28;20360;-36
2021/12/30 06:19:54;;;;;;;4.50;4.10;;;;;;;12.47;100.00;101240.63;5113479;28;20028;-36
2021/12/30 06:22:19;;;;;;;4.90;4.37;;;;;;;12.47;100.00;101246.03;5113422;28;20032;-36
2021/12/30 06:24:45;;;;;;;6.77;4.50;;;;;;;12.43;100.00;101241.31;5113210;28;20030;-36
2021/12/30 06:27:10;;;;;;;8.93;4.43;;;;;;;12.48;100.00;101239.56;5113733;28;20030;-36
2021/12/30 06:29:37;;;;;;;5.28;4.00;;;;;;;12.47;100.00;101259.59;5113512;28;20479;-36
2021/12/30 06:32:03;;;;;;;4.15;3.75;;;;;;;12.48;100.00;101246.88;5113368;28;20037;-36
2021/12/30 06:34:29;;;;;;;4.15;3.55;;;;;;;12.43;100.00;101231.28;5113935;28;20349;-36
2021/12/30 06:36:54;;;;;;;5.37;4.13;;;;;;;12.48;100.00;101242.28;5113379;28;20032;-36
2021/12/30 06:39:19;;;;;;;4.83;4.33;;;;;;;12.50;100.00;101248.31;5113452;28;20100;-36
2021/12/30 06:41:45;;;;;;;5.20;4.80;;;;;;;12.50;100.00;101256.44;5113366;28;20028;-36
2021/12/30 06:44:10;;;;;;;7.83;6.13;;;;;;;12.51;100.00;101260.78;5114024;28;20032;-36
2021/12/30 06:46:36;;;;;;;8.85;7.40;;;;;;;12.52;100.00;101253.47;5113507;28;20028;-36
2021/12/30 06:49:07;;;;;;;8.60;7.80;;;;;;;12.50;100.00;101259.16;5113915;28;20035;-36
2021/12/30 06:51:35;;;;;;;8.88;8.00;;;;;;;12.53;100.00;101257.84;5113616;28;20415;-36
2021/12/30 06:54:02;;;;;;;8.50;7.68;;;;;;;12.53;100.00;101255.94;5117703;28;20111;-36
2021/12/30 06:56:27;;;;;;;10.60;9.43;;;;;;;12.56;100.00;101260.09;5117473;28;20113;-36
2021/12/30 06:58:52;;;;;;;10.00;9.10;;;;;;;12.55;100.00;101272.84;5117632;28;20469;-36
2021/12/30 07:01:18;;;;;;;10.30;9.40;;;;;;;12.55;100.00;101283.69;5117242;28;20024;-36
2021/12/30 07:03:43;;;;;;;10.88;9.85;;;;;;;12.52;100.00;101267.03;5117769;28;20404;-36
2021/12/30 07:06:09;;;;;;;10.80;9.70;;;;;;;12.57;100.00;101283.44;5117514;28;20028;-36
2021/12/30 07:08:35;;;;;;;10.03;9.13;;;;;;;12.50;100.00;101277.31;5117131;28;20265;-36
2021/12/30 07:11:00;;;;;;;11.55;10.45;;;;;;;12.62;100.00;101289.00;5116804;28;20298;-36
2021/12/30 07:13:25;;;;;;;11.23;10.13;;;;;;;12.59;100.00;101284.88;5117070;28;20035;-36
2021/12/30 07:15:51;;;;;;;10.53;9.53;;;;;;;12.59;100.00;101289.44;5117555;28;20098;-36
2021/12/30 07:18:16;;;;;;;9.98;9.07;;;;;;;12.59;100.00;101290.31;5116942;28;20422;-36
2021/12/30 07:20:42;;;;;;;10.30;9.17;;;;;;;12.59;100.00;101293.03;5116878;28;20464;-36
2021/12/30 07:23:07;;;;;;;9.93;9.03;;;;;;;12.59;100.00;101295.72;5116808;28;20316;-36
2021/12/30 07:25:33;;;;;;;10.25;9.25;;;;;;;12.58;100.00;101306.78;5117053;28;20061;-36
2021/12/30 07:27:58;;;;;;;10.10;9.05;;;;;;;12.59;100.00;101306.59;5116840;28;20036;-37
2021/12/30 07:30:25;;;;;;;11.17;9.73;;;;;;;12.60;100.00;101308.22;5117494;28;20036;-36
2021/12/30 07:32:50;;;;;;;10.38;9.35;;;;;;;12.63;100.00;101306.94;5116457;28;20479;-36
2021/12/30 07:35:18;;;;;;;10.30;9.30;;;;;;;12.61;100.00;101315.31;5117240;28;20024;-36
2021/12/30 07:37:44;;;;;;;9.63;8.63;;;;;;;12.60;100.00;101310.13;5116829;28;20027;-36
2021/12/30 07:40:10;;;;;;;10.57;9.55;;;;;;;12.65;100.00;101317.56;5116828;28;20092;-36
2021/12/30 07:42:36;;;;;;;11.68;9.45;;;;;;;12.63;100.00;101318.59;5116202;28;20019;-36
2021/12/30 07:45:03;;;;;;;10.50;9.40;;;;;;;12.50;100.00;101293.59;5116585;28;20032;-36
2021/12/30 07:47:28;;;;;;;9.60;8.60;;;;;;;12.65;100.00;101320.28;5116589;28;20024;-36
2021/12/30 07:49:54;;;;;;;13.73;9.80;;;;;;;12.63;100.00;101326.75;5116413;28;20024;-36
2021/12/30 07:52:19;;;;;;;10.87;9.77;;;;;;;12.55;100.00;101310.81;5116265;28;20262;-36
2021/12/30 07:54:44;;;;;;;11.23;10.13;;;;;;;12.67;100.00;101334.44;5117056;28;20172;-36
2021/12/30 07:57:12;;;;;;;11.67;10.50;;;;;;;12.67;100.00;101323.56;5116188;28;20291;-36
2021/12/30 07:59:37;;;;;;;11.98;10.45;;;;;;;12.67;100.00;101329.81;5115874;28;20429;-36
2021/12/30 08:02:03;;;;;;;13.07;11.67;;;;;;;12.68;100.00;101333.34;5116492;28;20069;-36
2021/12/30 08:04:29;;;;;;;;;;;;;;;12.70;100.00;101323.94;5116256;28;20026;-36
2021/12/30 08:06:54;;;;;;;12.32;11.13;;;;;;;12.69;100.00;101321.44;5116394;28;19915;-36
2021/12/30 08:09:20;;;;;;;11.73;10.63;;;;;;;12.68;100.00;101325.22;5116732;28;20027;-36
2021/12/30 08:11:46;;;;;;;12.48;11.30;;;;;;;12.68;100.00;101327.94;5115832;28;20035;-36
2021/12/30 08:14:11;;;;;;;12.40;11.13;;;;;;;12.68;100.00;101338.78;5116298;28;20452;-36
2021/12/30 08:16:37;;;;;;;12.77;11.17;;;;;;;12.58;100.00;101337.47;5115789;28;20365;-36
2021/12/30 08:19:02;;;;;;;15.77;12.87;;;;;;;12.66;100.00;101349.06;5116147;28;20073;-36
2021/12/30 08:21:27;;;;;;;14.23;12.57;;;;;;;12.69;100.00;101363.00;5115432;28;20151;-36
2021/12/30 08:23:53;;;;;;;13.53;12.23;;;;;;;12.62;100.00;101354.94;5115839;28;20027;-36
2021/12/30 08:26:18;;;;;;;14.07;12.00;;;;;;;12.71;100.00;101357.31;5115644;28;20452;-37
2021/12/30 08:28:45;;;;;;;12.53;11.33;;;;;;;12.70;100.00;101361.94;5116030;28;20402;-36
2021/12/30 08:31:10;;;;;;;13.23;11.93;;;;;;;12.72;100.00;101367.13;5115343;28;20024;-36
2021/12/30 08:33:36;;;;;;;14.83;12.97;;;;;;;12.73;100.00;101349.78;5115392;28;20081;-36
2021/12/30 08:36:01;;;;;;;13.73;12.33;;;;;;;12.70;100.00;101347.53;5116306;28;20398;-36
2021/12/30 08:38:26;;;;;;;13.20;11.82;;;;;;;12.71;100.00;101349.19;5116332;28;20016;-36
2021/12/30 08:40:52;;;;;;;12.07;10.73;;;;;;;12.79;100.00;101362.44;5115478;28;20031;-36
2021/12/30 08:43:17;;;;;;;11.73;10.50;;;;;;;12.79;100.00;101376.00;5115991;28;20089;-36
2021/12/30 08:45:45;;;;;;;11.30;9.57;;;;;;;12.80;100.00;101366.78;5116112;28;20383;-36
2021/12/30 08:48:10;;;;;;;10.07;9.07;;;;;;;12.82;100.00;101378.22;5115155;28;20416;-36
2021/12/30 08:50:36;;;;;;;9.73;8.67;;;;;;;12.81;100.00;101382.00;5115316;28;20042;-37
2021/12/30 08:53:02;;;;;;;;;;;;;;;12.83;100.00;101383.44;5115352;28;20483;-36
2021/12/30 08:55:27;;;;;;;9.10;8.18;;;;;;;12.86;100.00;101393.00;5114917;28;19953;-36
2021/12/30 08:57:53;;;;;;;8.57;7.15;;;;;;;12.86;100.00;101398.41;5114870;28;20081;-36
2021/12/30 09:00:29;;;;;;;8.10;7.18;;;;;;;12.86;100.00;101393.00;5115698;28;20035;-36
2021/12/30 09:02:57;;;;;;;7.10;6.40;;;;;;;12.86;100.00;101409.28;5115653;28;20066;-36
2021/12/30 09:05:23;;;;;;;8.02;6.05;;;;;;;12.87;100.00;101405.50;5115212;28;20023;-36
2021/12/30 09:07:50;;;;;;;7.55;6.13;;;;;;;12.88;100.00;101399.00;5115218;28;20093;-36
2021/12/30 09:10:18;;;;;;;7.22;5.90;;;;;;;12.83;100.00;101379.88;5114500;28;20028;-36
2021/12/30 09:12:44;;;;;;;7.97;5.38;;;;;;;12.91;100.00;101398.53;5115565;28;20081;-36
2021/12/30 09:15:10;;;;;;;;;;;;;;;12.96;100.00;101422.28;5115891;28;20035;-36
2021/12/30 09:17:36;;;;;;;10.35;5.47;;;;;;;12.87;100.00;101389.22;5114536;28;19920;-36
2021/12/30 09:20:02;;;;;;;9.07;6.15;;;;;;;12.85;100.00;101383.19;5115512;28;20027;-36
2021/12/30 09:22:28;;;;;;;8.35;6.20;;;;;;;12.93;100.00;101396.41;5114570;28;20356;-36
2021/12/30 09:24:54;;;;;;;7.75;5.63;;;;;;;13.02;100.00;101407.78;5114479;28;20452;-36
2021/12/30 09:27:19;;;;;;;11.33;7.40;;;;;;;13.00;100.00;101410.72;5114530;28;20073;-36
2021/12/30 09:29:44;;;;;;;9.50;6.07;;;;;;;13.05;100.00;101412.75;5114536;28;20047;-36
2021/12/30 09:32:10;;;;;;;11.40;6.80;;;;;;;13.01;100.00;101408.84;5114649;28;20031;-36
2021/12/30 09:34:35;;;;;;;8.60;5.25;;;;;;;13.11;100.00;101423.47;5115184;28;20027;-36
2021/12/30 09:37:01;;;;;;;10.33;5.50;;;;;;;13.12;100.00;101422.41;5114154;28;20035;-37
2021/12/30 09:39:26;;;;;;;10.75;5.10;;;;;;;13.16;100.00;101430.94;5113991;28;20337;-36
2021/12/30 09:41:51;;;;;;;9.35;5.05;;;;;;;13.19;100.00;101416.06;5114271;28;20034;-36
2021/12/30 09:44:18;;;;;;;12.87;5.77;;;;;;;13.20;100.00;101420.44;5113908;28;20036;-41
2021/12/30 09:46:44;;;;;;;7.63;4.53;;;;;;;13.14;100.00;101420.31;5113743;28;20035;-36
2021/12/30 09:49:11;;;;;;;;;;;;;;;13.27;100.00;101434.75;5114966;28;20042;-36
2021/12/30 09:51:37;;;;;;;9.65;4.60;;;;;;;13.23;100.00;101433.59;5113876;28;19907;-36
2021/12/30 09:54:03;;;;;;;12.35;4.78;;;;;;;13.25;100.00;101436.88;5114350;28;20039;-36
2021/12/30 09:56:29;;;;;;;10.93;4.70;;;;;;;13.28;100.00;101442.69;5113727;28;20481;-36
2021/12/30 09:58:55;;;;;;;10.63;3.97;;;;;;;13.31;100.00;101438.66;5114121;28;20034;-36
2021/12/30 10:01:20;;;;;;;10.85;4.10;;;;;;;13.23;100.00;101434.41;5113748;28;20031;-36
2021/12/30 10:03:46;;;;;;;11.05;4.05;;;;;;;13.32;100.00;101443.03;5113983;28;20389;-36
2021/12/30 10:06:14;;;;;;;;;;;;;;;13.35;100.00;101428.97;5114194;28;20096;-36
2021/12/30 10:08:53;;;;;;;15.88;4.03;;;;;;;13.32;100.00;101429.44;5114494;28;19955;-36
2021/12/30 10:11:18;;;;;;;13.75;4.32;;;;;;;13.27;100.00;101422.00;5113904;28;20039;-36
2021/12/30 10:13:56;;;;;;;12.68;4.30;;;;;;;13.38;100.00;101440.22;5113890;28;20085;-37
2021/12/30 10:16:23;;;;;;;8.95;3.63;;;;;;;13.34;100.00;101428.16;5114192;28;20388;-37
2021/12/30 10:18:55;;;;;;;12.80;3.78;;;;;;;13.43;100.00;101442.22;5114218;28;20031;-36
2021/12/30 10:21:25;;;;;;;17.48;3.78;;;;;;;13.47;100.00;101440.69;5114304;28;20034;-37
2021/12/30 10:23:57;;;;;;;10.20;4.40;;;;;;;13.50;100.00;101453.78;5113703;28;20030;-36
2021/12/30 10:26:23;;;;;;;11.70;4.55;;;;;;;13.49;100.00;101452.16;5113431;28;20059;-36
2021/12/30 10:28:54;;;;;;;10.95;4.10;;;;;;;13.44;100.00;101438.44;5113823;28;20055;-36
2021/12/30 10:31:25;;;;;;;13.57;4.38;;;;;;;13.51;100.00;101455.44;5113804;28;20032;-36
2021/12/30 10:34:00;;;;;;;9.05;4.05;;;;;;;13.33;100.00;101421.09;5114306;28;20051;-36
2021/12/30 10:36:32;;;;;;;13.07;4.78;;;;;;;13.49;100.00;101449.44;5114173;28;20354;-36
2021/12/30 10:39:33;;;;;;;17.35;4.65;;;;;;;13.45;100.00;101445.53;5113942;28;20031;-36
2021/12/30 10:41:58;;;;;;;10.88;3.97;;;;;;;13.44;100.00;101443.06;5113975;28;20080;-36
2021/12/30 10:44:23;;;;;;;15.10;5.20;;;;;;;13.36;100.00;101436.06;5113380;28;20035;-36
2021/12/30 10:46:49;;;;;;;12.15;4.40;;;;;;;13.43;100.00;101446.84;5113669;28;20028;-36
2021/12/30 10:49:25;;;;;;;10.02;3.72;;;;;;;13.38;100.00;101442.09;5113818;28;20070;-36
2021/12/30 10:51:52;;;;;;;13.17;3.97;;;;;;;13.44;100.00;101440.34;5114115;28;20076;-36
2021/12/30 10:54:18;;;;;;;11.77;4.15;;;;;;;13.47;100.00;101458.84;5113862;28;20041;-36
2021/12/30 10:56:46;;;;;;;9.82;3.72;;;;;;;13.50;100.00;101455.69;5113219;28;20379;-36
2021/12/30 10:59:16;;;;;;;15.10;4.75;;;;;;;13.54;100.00;101454.97;5113543;28;20027;-36
2021/12/30 11:01:45;;;;;;;13.85;3.75;;;;;;;13.48;100.00;101447.78;5113558;28;20028;-36
2021/12/30 11:04:10;;;;;;;12.07;4.47;;;;;;;13.59;100.00;101459.72;5114171;28;20051;-36
2021/12/30 11:06:36;;;;;;;12.60;4.82;;;;;;;13.61;100.00;101466.56;5113375;28;20062;-37